Gladwin, Iowa
Current Conditions -  °F | °C
As of 8:35 AM on Saturday 25 Oct 2014 (Local Time) from KAWG Reporting Station
Clear Clear  
Wind Chill: 55°   Ceiling: Unl
Heat Index: 55°   Visibility: 10mi
Dew Point: 55°   Wind: 10mph
Humidity: 100%   Direction: 340°NNW
Pressure: 30.03"   Gusts: NA
Location:  41.2636°N, 91.4145°W
Report Text: KAWG 251335Z AUTO 34009KT 10SM CLR 13/13 A3003 RMK AO2
Loading
Personal Weather Stations






























Interactive Weather Map New forecast layout! Learn more

10-Day Weather Forecast

Advertisements
Track Severe Weather on mobile